sensor_id;sensor_type;location;lat;lon;timestamp;pressure;altitude;pressure_sealevel;temperature;humidity
72409;BME280;60402;48.082;11.628;2022-08-20T00:02:12;95234.59;;;17.61;91.77
72409;BME280;60402;48.082;11.628;2022-08-20T00:04:37;95230.53;;;17.68;91.30
72409;BME280;60402;48.082;11.628;2022-08-20T00:07:03;95231.81;;;17.67;90.99
72409;BME280;60402;48.082;11.628;2022-08-20T00:09:28;95213.94;;;17.52;91.57
72409;BME280;60402;48.082;11.628;2022-08-20T00:11:53;95235.91;;;17.60;91.53
72409;BME280;60402;48.082;11.628;2022-08-20T00:14:19;95230.91;;;17.55;91.64
72409;BME280;60402;48.082;11.628;2022-08-20T00:16:44;95234.72;;;17.52;92.19
72409;BME280;60402;48.082;11.628;2022-08-20T00:19:10;95231.00;;;17.46;92.48
72409;BME280;60402;48.082;11.628;2022-08-20T00:21:35;95236.81;;;17.52;91.65
72409;BME280;60402;48.082;11.628;2022-08-20T00:24:02;95220.19;;;17.35;92.55
72409;BME280;60402;48.082;11.628;2022-08-20T00:26:27;95231.59;;;17.50;92.04
72409;BME280;60402;48.082;11.628;2022-08-20T00:28:53;95225.47;;;17.57;90.98
72409;BME280;60402;48.082;11.628;2022-08-20T00:31:21;95236.72;;;17.46;91.75
72409;BME280;60402;48.082;11.628;2022-08-20T00:33:47;95227.84;;;17.44;92.15
72409;BME280;60402;48.082;11.628;2022-08-20T00:36:13;95220.00;;;17.39;91.45
72409;BME280;60402;48.082;11.628;2022-08-20T00:38:41;95233.16;;;17.51;91.55
72409;BME280;60402;48.082;11.628;2022-08-20T00:41:13;95239.59;;;17.46;91.49
72409;BME280;60402;48.082;11.628;2022-08-20T00:43:44;95234.25;;;17.39;91.13
72409;BME280;60402;48.082;11.628;2022-08-20T00:48:44;95241.84;;;17.42;92.06
72409;BME280;60402;48.082;11.628;2022-08-20T00:51:43;95248.47;;;17.33;92.25
72409;BME280;60402;48.082;11.628;2022-08-20T00:56:43;95245.41;;;17.37;90.99
72409;BME280;60402;48.082;11.628;2022-08-20T00:59:15;95237.56;;;17.32;92.13
72409;BME280;60402;48.082;11.628;2022-08-20T01:01:42;95237.91;;;17.40;91.58
72409;BME280;60402;48.082;11.628;2022-08-20T01:04:08;95240.28;;;17.41;91.51
72409;BME280;60402;48.082;11.628;2022-08-20T01:06:38;95243.94;;;17.42;91.43
72409;BME280;60402;48.082;11.628;2022-08-20T01:09:05;95233.41;;;17.33;91.70
72409;BME280;60402;48.082;11.628;2022-08-20T01:11:31;95242.94;;;17.30;92.44
72409;BME280;60402;48.082;11.628;2022-08-20T01:14:04;95248.66;;;17.30;91.99
72409;BME280;60402;48.082;11.628;2022-08-20T01:16:52;95242.94;;;17.30;92.48
72409;BME280;60402;48.082;11.628;2022-08-20T01:19:32;95258.09;;;17.51;91.88
72409;BME280;60402;48.082;11.628;2022-08-20T01:22:00;95249.13;;;17.43;91.72
72409;BME280;60402;48.082;11.628;2022-08-20T01:24:32;95249.94;;;17.29;92.96
72409;BME280;60402;48.082;11.628;2022-08-20T01:27:01;95260.47;;;17.37;93.05
72409;BME280;60402;48.082;11.628;2022-08-20T01:29:34;95257.50;;;17.47;92.84
72409;BME280;60402;48.082;11.628;2022-08-20T01:32:02;95268.16;;;17.46;92.46
72409;BME280;60402;48.082;11.628;2022-08-20T01:34:28;95257.91;;;17.40;93.10
72409;BME280;60402;48.082;11.628;2022-08-20T01:36:54;95262.75;;;17.33;93.74
72409;BME280;60402;48.082;11.628;2022-08-20T01:39:27;95255.03;;;17.40;93.54
72409;BME280;60402;48.082;11.628;2022-08-20T01:42:06;95256.34;;;17.38;93.52
72409;BME280;60402;48.082;11.628;2022-08-20T01:44:34;95255.56;;;17.38;93.39
72409;BME280;60402;48.082;11.628;2022-08-20T01:49:35;95240.28;;;17.26;94.32
72409;BME280;60402;48.082;11.628;2022-08-20T01:52:05;95256.75;;;17.31;93.66
72409;BME280;60402;48.082;11.628;2022-08-20T01:54:33;95249.75;;;17.32;94.11
72409;BME280;60402;48.082;11.628;2022-08-20T01:57:31;95260.75;;;17.40;93.89
72409;BME280;60402;48.082;11.628;2022-08-20T01:59:51;95253.66;;;17.35;93.81
72409;BME280;60402;48.082;11.628;2022-08-20T02:02:16;95260.09;;;17.30;94.47
72409;BME280;60402;48.082;11.628;2022-08-20T02:04:42;95259.59;;;17.31;94.23
72409;BME280;60402;48.082;11.628;2022-08-20T02:07:14;95268.25;;;17.37;94.13
72409;BME280;60402;48.082;11.628;2022-08-20T02:09:41;95261.75;;;17.36;94.25
72409;BME280;60402;48.082;11.628;2022-08-20T02:12:08;95255.47;;;17.32;94.40
72409;BME280;60402;48.082;11.628;2022-08-20T02:14:37;95272.09;;;17.34;94.11
72409;BME280;60402;48.082;11.628;2022-08-20T02:17:03;95259.31;;;17.15;96.22
72409;BME280;60402;48.082;11.628;2022-08-20T02:19:32;95271.22;;;17.28;95.09
72409;BME280;60402;48.082;11.628;2022-08-20T02:22:03;95270.63;;;17.24;95.34
72409;BME280;60402;48.082;11.628;2022-08-20T02:24:32;95272.72;;;17.23;95.26
72409;BME280;60402;48.082;11.628;2022-08-20T02:26:59;95264.13;;;17.23;95.48
72409;BME280;60402;48.082;11.628;2022-08-20T02:29:25;95261.38;;;17.14;95.99
72409;BME280;60402;48.082;11.628;2022-08-20T02:31:50;95277.41;;;17.26;95.42
72409;BME280;60402;48.082;11.628;2022-08-20T02:34:16;95274.00;;;17.22;96.42
72409;BME280;60402;48.082;11.628;2022-08-20T02:36:41;95264.13;;;17.23;95.68
72409;BME280;60402;48.082;11.628;2022-08-20T02:39:09;95280.00;;;17.24;96.13
72409;BME280;60402;48.082;11.628;2022-08-20T02:41:37;95272.50;;;17.27;96.04
72409;BME280;60402;48.082;11.628;2022-08-20T02:44:04;95277.31;;;17.21;96.47
72409;BME280;60402;48.082;11.628;2022-08-20T02:46:30;95283.44;;;17.14;97.01
72409;BME280;60402;48.082;11.628;2022-08-20T02:48:56;95281.28;;;17.23;96.62
72409;BME280;60402;48.082;11.628;2022-08-20T02:51:22;95273.19;;;17.22;96.28
72409;BME280;60402;48.082;11.628;2022-08-20T02:53:47;95260.53;;;17.08;96.34
72409;BME280;60402;48.082;11.628;2022-08-20T02:56:13;95275.16;;;17.30;95.51
72409;BME280;60402;48.082;11.628;2022-08-20T02:58:38;95276.84;;;17.22;96.17
72409;BME280;60402;48.082;11.628;2022-08-20T03:01:09;95276.03;;;17.22;95.91
72409;BME280;60402;48.082;11.628;2022-08-20T03:03:37;95277.63;;;17.23;96.36
72409;BME280;60402;48.082;11.628;2022-08-20T03:06:03;95258.81;;;17.16;95.67
72409;BME280;60402;48.082;11.628;2022-08-20T03:08:29;95273.78;;;17.26;95.39
72409;BME280;60402;48.082;11.628;2022-08-20T03:10:54;95268.38;;;17.13;96.61
72409;BME280;60402;48.082;11.628;2022-08-20T03:13:20;95270.16;;;17.10;96.42
72409;BME280;60402;48.082;11.628;2022-08-20T03:15:50;95276.53;;;17.20;96.22
72409;BME280;60402;48.082;11.628;2022-08-20T03:18:17;95282.53;;;17.07;96.79
72409;BME280;60402;48.082;11.628;2022-08-20T03:20:44;95290.63;;;17.09;97.05
72409;BME280;60402;48.082;11.628;2022-08-20T03:23:10;95290.22;;;17.16;96.67
72409;BME280;60402;48.082;11.628;2022-08-20T03:25:36;95286.69;;;17.06;97.48
72409;BME280;60402;48.082;11.628;2022-08-20T03:28:01;95288.84;;;17.11;97.23
72409;BME280;60402;48.082;11.628;2022-08-20T03:30:27;95285.50;;;16.98;97.58
72409;BME280;60402;48.082;11.628;2022-08-20T03:32:54;95274.06;;;16.98;98.10
72409;BME280;60402;48.082;11.628;2022-08-20T03:35:22;95298.50;;;17.14;97.58
72409;BME280;60402;48.082;11.628;2022-08-20T03:37:47;95291.31;;;17.04;97.62
72409;BME280;60402;48.082;11.628;2022-08-20T03:40:17;95299.97;;;17.09;97.27
72409;BME280;60402;48.082;11.628;2022-08-20T03:42:42;95297.31;;;17.06;97.22
72409;BME280;60402;48.082;11.628;2022-08-20T03:45:09;95312.00;;;17.14;97.23
72409;BME280;60402;48.082;11.628;2022-08-20T03:47:36;95293.09;;;17.01;97.48
72409;BME280;60402;48.082;11.628;2022-08-20T03:50:04;95310.44;;;17.13;97.50
72409;BME280;60402;48.082;11.628;2022-08-20T03:52:30;95307.34;;;17.16;97.36
72409;BME280;60402;48.082;11.628;2022-08-20T03:54:55;95288.66;;;17.00;96.70
72409;BME280;60402;48.082;11.628;2022-08-20T03:57:21;95310.22;;;17.16;97.14
72409;BME280;60402;48.082;11.628;2022-08-20T03:59:46;95311.78;;;17.17;96.78
72409;BME280;60402;48.082;11.628;2022-08-20T04:02:12;95314.25;;;17.09;97.31
72409;BME280;60402;48.082;11.628;2022-08-20T04:04:38;95303.03;;;17.06;97.82
72409;BME280;60402;48.082;11.628;2022-08-20T04:07:30;95319.47;;;17.11;97.01
72409;BME280;60402;48.082;11.628;2022-08-20T04:09:56;95308.44;;;17.04;97.07
72409;BME280;60402;48.082;11.628;2022-08-20T04:12:22;95315.31;;;17.12;97.15
72409;BME280;60402;48.082;11.628;2022-08-20T04:14:49;95314.94;;;17.04;97.83
72409;BME280;60402;48.082;11.628;2022-08-20T04:17:15;95304.69;;;16.98;97.20
72409;BME280;60402;48.082;11.628;2022-08-20T04:19:41;95313.28;;;17.13;96.82
72409;BME280;60402;48.082;11.628;2022-08-20T04:22:08;95299.88;;;16.89;97.92
72409;BME280;60402;48.082;11.628;2022-08-20T04:24:34;95322.41;;;17.02;98.15
72409;BME280;60402;48.082;11.628;2022-08-20T04:27:01;95321.13;;;17.03;97.63
72409;BME280;60402;48.082;11.628;2022-08-20T04:29:27;95314.72;;;16.93;98.42
72409;BME280;60402;48.082;11.628;2022-08-20T04:31:53;95334.75;;;17.08;98.13
72409;BME280;60402;48.082;11.628;2022-08-20T04:34:20;95334.16;;;17.04;98.15
72409;BME280;60402;48.082;11.628;2022-08-20T04:36:46;95337.88;;;16.95;99.27
72409;BME280;60402;48.082;11.628;2022-08-20T04:39:15;95331.75;;;17.02;97.52
72409;BME280;60402;48.082;11.628;2022-08-20T04:41:41;95338.66;;;16.96;98.52
72409;BME280;60402;48.082;11.628;2022-08-20T04:44:07;95343.69;;;17.01;98.13
72409;BME280;60402;48.082;11.628;2022-08-20T04:46:33;95332.44;;;16.97;98.09
72409;BME280;60402;48.082;11.628;2022-08-20T04:48:58;95345.06;;;17.05;98.21
72409;BME280;60402;48.082;11.628;2022-08-20T04:51:25;95346.25;;;16.99;98.63
72409;BME280;60402;48.082;11.628;2022-08-20T04:53:52;95332.94;;;16.96;98.55
72409;BME280;60402;48.082;11.628;2022-08-20T04:56:18;95340.81;;;17.01;97.90
72409;BME280;60402;48.082;11.628;2022-08-20T04:58:47;95342.91;;;17.00;98.49
72409;BME280;60402;48.082;11.628;2022-08-20T05:01:14;95333.63;;;16.91;98.52
72409;BME280;60402;48.082;11.628;2022-08-20T05:03:40;95341.00;;;16.97;98.01
72409;BME280;60402;48.082;11.628;2022-08-20T05:06:08;95346.44;;;16.95;98.48
72409;BME280;60402;48.082;11.628;2022-08-20T05:08:34;95336.59;;;16.96;97.48
72409;BME280;60402;48.082;11.628;2022-08-20T05:11:01;95350.78;;;17.05;97.96
72409;BME280;60402;48.082;11.628;2022-08-20T05:13:26;95329.78;;;16.94;98.06
72409;BME280;60402;48.082;11.628;2022-08-20T05:15:52;95336.88;;;16.98;97.98
72409;BME280;60402;48.082;11.628;2022-08-20T05:18:21;95350.50;;;17.03;97.72
72409;BME280;60402;48.082;11.628;2022-08-20T05:20:47;95358.56;;;17.05;98.76
72409;BME280;60402;48.082;11.628;2022-08-20T05:23:15;95348.41;;;17.04;98.32
72409;BME280;60402;48.082;11.628;2022-08-20T05:25:43;95350.50;;;17.03;97.73
72409;BME280;60402;48.082;11.628;2022-08-20T05:28:20;95369.19;;;17.04;98.35
72409;BME280;60402;48.082;11.628;2022-08-20T05:30:47;95365.66;;;17.09;97.72
72409;BME280;60402;48.082;11.628;2022-08-20T05:33:14;95366.25;;;17.14;97.40
72409;BME280;60402;48.082;11.628;2022-08-20T05:35:41;95359.25;;;17.15;96.91
72409;BME280;60402;48.082;11.628;2022-08-20T05:38:10;95366.22;;;16.99;98.77
72409;BME280;60402;48.082;11.628;2022-08-20T05:40:36;95365.53;;;17.04;98.43
72409;BME280;60402;48.082;11.628;2022-08-20T05:43:02;95370.84;;;17.11;98.28
72409;BME280;60402;48.082;11.628;2022-08-20T05:45:29;95377.94;;;17.16;98.06
72409;BME280;60402;48.082;11.628;2022-08-20T05:47:55;95374.81;;;17.14;98.40
72409;BME280;60402;48.082;11.628;2022-08-20T05:50:21;95378.72;;;17.16;97.64
72409;BME280;60402;48.082;11.628;2022-08-20T05:52:46;95383.75;;;17.21;98.06
72409;BME280;60402;48.082;11.628;2022-08-20T05:55:12;95374.50;;;17.26;96.36
72409;BME280;60402;48.082;11.628;2022-08-20T05:57:38;95390.84;;;17.26;97.43
72409;BME280;60402;48.082;11.628;2022-08-20T06:00:07;95387.31;;;17.31;97.70
72409;BME280;60402;48.082;11.628;2022-08-20T06:02:32;95372.47;;;17.27;97.67
72409;BME280;60402;48.082;11.628;2022-08-20T06:05:16;95374.63;;;17.47;96.09
72409;BME280;60402;48.082;11.628;2022-08-20T06:07:43;95374.13;;;17.33;97.09
72409;BME280;60402;48.082;11.628;2022-08-20T06:10:09;95373.34;;;17.48;95.76
72409;BME280;60402;48.082;11.628;2022-08-20T06:12:35;95391.34;;;17.54;95.95
72409;BME280;60402;48.082;11.628;2022-08-20T06:15:02;95391.16;;;17.57;96.14
72409;BME280;60402;48.082;11.628;2022-08-20T06:17:28;95392.03;;;17.63;95.86
72409;BME280;60402;48.082;11.628;2022-08-20T06:19:53;95398.44;;;17.58;96.08
72409;BME280;60402;48.082;11.628;2022-08-20T06:22:19;95392.13;;;17.54;96.74
72409;BME280;60402;48.082;11.628;2022-08-20T06:24:44;95401.03;;;17.56;96.78
72409;BME280;60402;48.082;11.628;2022-08-20T06:27:13;95404.38;;;17.70;96.36
72409;BME280;60402;48.082;11.628;2022-08-20T06:29:39;95393.63;;;17.65;95.55
72409;BME280;60402;48.082;11.628;2022-08-20T06:32:05;95400.41;;;17.67;95.69
72409;BME280;60402;48.082;11.628;2022-08-20T06:34:31;95401.13;;;17.77;95.34
72409;BME280;60402;48.082;11.628;2022-08-20T06:36:58;95405.44;;;17.87;95.29
72409;BME280;60402;48.082;11.628;2022-08-20T06:39:24;95411.47;;;17.89;94.90
72409;BME280;60402;48.082;11.628;2022-08-20T06:41:51;95398.56;;;17.94;95.07
72409;BME280;60402;48.082;11.628;2022-08-20T06:44:17;95403.84;;;18.01;94.85
72409;BME280;60402;48.082;11.628;2022-08-20T06:46:43;95398.84;;;17.96;94.03
72409;BME280;60402;48.082;11.628;2022-08-20T06:49:10;95394.56;;;18.06;93.54
72409;BME280;60402;48.082;11.628;2022-08-20T06:51:36;95410.72;;;18.24;94.03
72409;BME280;60402;48.082;11.628;2022-08-20T06:54:03;95407.66;;;18.27;93.91
72409;BME280;60402;48.082;11.628;2022-08-20T06:56:29;95401.63;;;18.25;92.93
72409;BME280;60402;48.082;11.628;2022-08-20T06:58:54;95413.56;;;18.24;93.17
72409;BME280;60402;48.082;11.628;2022-08-20T07:01:20;95413.44;;;18.33;92.91
72409;BME280;60402;48.082;11.628;2022-08-20T07:03:47;95427.94;;;18.29;93.58
72409;BME280;60402;48.082;11.628;2022-08-20T07:06:14;95411.81;;;18.26;91.88
72409;BME280;60402;48.082;11.628;2022-08-20T07:08:40;95418.47;;;18.38;92.53
72409;BME280;60402;48.082;11.628;2022-08-20T07:11:06;95424.09;;;18.32;92.95
72409;BME280;60402;48.082;11.628;2022-08-20T07:13:31;95404.47;;;18.25;92.52
72409;BME280;60402;48.082;11.628;2022-08-20T07:15:57;95425.47;;;18.37;92.45
72409;BME280;60402;48.082;11.628;2022-08-20T07:18:23;95423.19;;;18.41;91.98
72409;BME280;60402;48.082;11.628;2022-08-20T07:20:48;95419.09;;;18.27;92.65
72409;BME280;60402;48.082;11.628;2022-08-20T07:23:14;95432.47;;;18.36;92.54
72409;BME280;60402;48.082;11.628;2022-08-20T07:25:41;95437.97;;;18.39;92.04
72409;BME280;60402;48.082;11.628;2022-08-20T07:28:12;95431.91;;;18.32;92.51
72409;BME280;60402;48.082;11.628;2022-08-20T07:30:38;95438.66;;;18.49;91.87
72409;BME280;60402;48.082;11.628;2022-08-20T07:33:22;95440.38;;;18.41;91.85
72409;BME280;60402;48.082;11.628;2022-08-20T07:35:48;95446.28;;;18.37;92.82
72409;BME280;60402;48.082;11.628;2022-08-20T07:38:18;95439.06;;;18.42;92.40
72409;BME280;60402;48.082;11.628;2022-08-20T07:40:50;95449.41;;;18.39;92.89
72409;BME280;60402;48.082;11.628;2022-08-20T07:43:15;95439.28;;;18.38;93.39
72409;BME280;60402;48.082;11.628;2022-08-20T07:45:41;95439.72;;;18.52;92.53
72409;BME280;60402;48.082;11.628;2022-08-20T07:48:09;95452.13;;;18.63;91.44
72409;BME280;60402;48.082;11.628;2022-08-20T07:50:37;95455.09;;;18.69;91.21
72409;BME280;60402;48.082;11.628;2022-08-20T07:53:03;95454.69;;;18.61;90.56
72409;BME280;60402;48.082;11.628;2022-08-20T07:55:29;95449.81;;;18.68;91.66
72409;BME280;60402;48.082;11.628;2022-08-20T07:57:57;95451.47;;;18.54;92.67
72409;BME280;60402;48.082;11.628;2022-08-20T08:00:23;95445.75;;;18.54;92.45
72409;BME280;60402;48.082;11.628;2022-08-20T08:02:50;95454.78;;;18.67;91.59
72409;BME280;60402;48.082;11.628;2022-08-20T08:05:15;95454.09;;;18.72;91.00
72409;BME280;60402;48.082;11.628;2022-08-20T08:07:42;95455.75;;;18.79;90.86
72409;BME280;60402;48.082;11.628;2022-08-20T08:10:11;95454.84;;;18.87;91.13
72409;BME280;60402;48.082;11.628;2022-08-20T08:12:41;95449.69;;;18.92;90.49
72409;BME280;60402;48.082;11.628;2022-08-20T08:15:11;95453.25;;;19.07;89.63
72409;BME280;60402;48.082;11.628;2022-08-20T08:17:39;95441.94;;;18.98;89.32
72409;BME280;60402;48.082;11.628;2022-08-20T08:20:06;95459.69;;;19.22;87.99
72409;BME280;60402;48.082;11.628;2022-08-20T08:22:32;95462.84;;;19.04;89.02
72409;BME280;60402;48.082;11.628;2022-08-20T08:24:58;95459.19;;;19.03;89.46
72409;BME280;60402;48.082;11.628;2022-08-20T08:27:27;95455.53;;;19.03;89.24
72409;BME280;60402;48.082;11.628;2022-08-20T08:29:58;95459.19;;;19.03;89.00
72409;BME280;60402;48.082;11.628;2022-08-20T08:32:25;95461.13;;;19.12;88.53
72409;BME280;60402;48.082;11.628;2022-08-20T08:34:50;95475.25;;;19.15;88.46
72409;BME280;60402;48.082;11.628;2022-08-20T08:37:15;95469.56;;;19.21;86.61
72409;BME280;60402;48.082;11.628;2022-08-20T08:39:41;95469.06;;;19.02;87.89
72409;BME280;60402;48.082;11.628;2022-08-20T08:42:20;95467.22;;;18.99;88.77
72409;BME280;60402;48.082;11.628;2022-08-20T08:44:50;95465.56;;;18.93;89.37
72409;BME280;60402;48.082;11.628;2022-08-20T08:47:25;95449.81;;;18.82;89.66
72409;BME280;60402;48.082;11.628;2022-08-20T08:49:51;95483.19;;;19.06;88.97
72409;BME280;60402;48.082;11.628;2022-08-20T08:52:25;95481.81;;;19.01;89.91
72409;BME280;60402;48.082;11.628;2022-08-20T08:54:54;95468.00;;;19.00;88.87
72409;BME280;60402;48.082;11.628;2022-08-20T08:57:20;95486.09;;;18.91;90.13
72409;BME280;60402;48.082;11.628;2022-08-20T08:59:54;95484.69;;;19.01;89.88
72409;BME280;60402;48.082;11.628;2022-08-20T09:02:22;95470.59;;;18.98;89.52
72409;BME280;60402;48.082;11.628;2022-08-20T09:04:50;95487.31;;;18.84;90.71
72409;BME280;60402;48.082;11.628;2022-08-20T09:07:16;95486.31;;;18.87;90.31
72409;BME280;60402;48.082;11.628;2022-08-20T09:09:43;95477.63;;;18.82;90.18
72409;BME280;60402;48.082;11.628;2022-08-20T09:12:19;95485.44;;;18.81;90.09
72409;BME280;60402;48.082;11.628;2022-08-20T09:14:47;95465.88;;;18.59;91.04
72409;BME280;60402;48.082;11.628;2022-08-20T09:17:14;95481.66;;;18.70;91.38
72409;BME280;60402;48.082;11.628;2022-08-20T09:19:40;95484.88;;;18.77;91.56
72409;BME280;60402;48.082;11.628;2022-08-20T09:22:10;95493.31;;;18.86;90.22
72409;BME280;60402;48.082;11.628;2022-08-20T09:24:35;95485.56;;;18.72;90.61
72409;BME280;60402;48.082;11.628;2022-08-20T09:27:01;95496.09;;;18.81;91.24
72409;BME280;60402;48.082;11.628;2022-08-20T09:29:26;95472.44;;;18.65;91.91
72409;BME280;60402;48.082;11.628;2022-08-20T09:32:20;95483.38;;;18.67;92.55
72409;BME280;60402;48.082;11.628;2022-08-20T09:34:50;95489.31;;;18.78;92.26
72409;BME280;60402;48.082;11.628;2022-08-20T09:37:32;95490.38;;;18.81;92.30
72409;BME280;60402;48.082;11.628;2022-08-20T09:39:58;95475.72;;;18.73;92.02
72409;BME280;60402;48.082;11.628;2022-08-20T09:42:34;95486.53;;;18.84;91.69
72409;BME280;60402;48.082;11.628;2022-08-20T09:45:00;95487.75;;;18.77;92.23
72409;BME280;60402;48.082;11.628;2022-08-20T09:47:26;95492.91;;;18.94;91.69
72409;BME280;60402;48.082;11.628;2022-08-20T09:49:52;95476.56;;;18.79;91.87
72409;BME280;60402;48.082;11.628;2022-08-20T09:52:26;95489.13;;;19.02;91.39
72409;BME280;60402;48.082;11.628;2022-08-20T09:54:53;95486.47;;;18.99;91.23
72409;BME280;60402;48.082;11.628;2022-08-20T09:57:21;95468.00;;;19.00;90.87
72409;BME280;60402;48.082;11.628;2022-08-20T09:59:55;95493.66;;;19.29;89.93
72409;BME280;60402;48.082;11.628;2022-08-20T10:02:23;95477.25;;;19.30;89.77
72409;BME280;60402;48.082;11.628;2022-08-20T10:04:48;95477.50;;;19.32;90.22
72409;BME280;60402;48.082;11.628;2022-08-20T10:07:13;95485.44;;;19.42;90.16
72409;BME280;60402;48.082;11.628;2022-08-20T10:09:39;95473.81;;;19.52;89.41
72409;BME280;60402;48.082;11.628;2022-08-20T10:12:05;95485.16;;;19.61;89.51
72409;BME280;60402;48.082;11.628;2022-08-20T10:14:30;95485.72;;;19.65;89.91
72409;BME280;60402;48.082;11.628;2022-08-20T10:17:00;95493.31;;;19.68;88.37
72409;BME280;60402;48.082;11.628;2022-08-20T10:19:27;95488.38;;;19.69;87.97
72409;BME280;60402;48.082;11.628;2022-08-20T10:21:53;95473.38;;;19.59;88.18
72409;BME280;60402;48.082;11.628;2022-08-20T10:24:19;95482.53;;;19.83;87.52
72409;BME280;60402;48.082;11.628;2022-08-20T10:26:45;95480.03;;;19.71;88.68
72409;BME280;60402;48.082;11.628;2022-08-20T10:29:11;95479.41;;;19.81;88.85
72409;BME280;60402;48.082;11.628;2022-08-20T10:31:36;95461.28;;;19.70;88.98
72409;BME280;60402;48.082;11.628;2022-08-20T10:34:02;95481.53;;;19.86;88.87
72409;BME280;60402;48.082;11.628;2022-08-20T10:36:27;95471.44;;;19.97;87.74
72409;BME280;60402;48.082;11.628;2022-08-20T10:38:53;95471.63;;;19.87;88.11
72409;BME280;60402;48.082;11.628;2022-08-20T10:41:18;95479.88;;;20.06;87.05
72409;BME280;60402;48.082;11.628;2022-08-20T10:43:44;95453.84;;;19.83;87.11
72409;BME280;60402;48.082;11.628;2022-08-20T10:46:09;95459.88;;;20.17;85.99
72409;BME280;60402;48.082;11.628;2022-08-20T10:48:35;95479.94;;;20.11;84.74
72409;BME280;60402;48.082;11.628;2022-08-20T10:51:00;95482.53;;;20.09;85.57
72409;BME280;60402;48.082;11.628;2022-08-20T10:53:26;95483.31;;;20.10;86.18
72409;BME280;60402;48.082;11.628;2022-08-20T10:55:53;95476.91;;;20.26;83.40
72409;BME280;60402;48.082;11.628;2022-08-20T10:58:19;95469.00;;;20.15;84.68
72409;BME280;60402;48.082;11.628;2022-08-20T11:00:44;95473.50;;;20.22;84.57
72409;BME280;60402;48.082;11.628;2022-08-20T11:03:10;95475.63;;;20.27;85.58
72409;BME280;60402;48.082;11.628;2022-08-20T11:05:36;95473.97;;;20.15;85.87
72409;BME280;60402;48.082;11.628;2022-08-20T11:08:02;95468.19;;;20.09;85.47
72409;BME280;60402;48.082;11.628;2022-08-20T11:10:30;95463.06;;;19.93;86.01
72409;BME280;60402;48.082;11.628;2022-08-20T11:12:57;95484.59;;;20.09;86.00
72409;BME280;60402;48.082;11.628;2022-08-20T11:15:22;95464.47;;;20.03;85.43
72409;BME280;60402;48.082;11.628;2022-08-20T11:17:48;95454.63;;;20.10;84.34
72409;BME280;60402;48.082;11.628;2022-08-20T11:20:19;95473.59;;;20.02;84.63
72409;BME280;60402;48.082;11.628;2022-08-20T11:22:46;95464.63;;;20.20;84.78
72409;BME280;60402;48.082;11.628;2022-08-20T11:25:28;95454.25;;;20.28;83.98
72409;BME280;60402;48.082;11.628;2022-08-20T11:27:59;95448.16;;;20.15;84.98
72409;BME280;60402;48.082;11.628;2022-08-20T11:30:30;95442.81;;;20.02;85.98
72409;BME280;60402;48.082;11.628;2022-08-20T11:33:00;95478.59;;;20.07;84.91
72409;BME280;60402;48.082;11.628;2022-08-20T11:35:33;95442.94;;;19.87;85.31
72409;BME280;60402;48.082;11.628;2022-08-20T11:38:00;95443.06;;;19.73;84.50
72409;BME280;60402;48.082;11.628;2022-08-20T11:40:29;95451.13;;;19.48;85.00
72409;BME280;60402;48.082;11.628;2022-08-20T11:42:55;95438.22;;;19.12;85.84
72409;BME280;60402;48.082;11.628;2022-08-20T11:45:23;95428.69;;;19.00;85.62
72409;BME280;60402;48.082;11.628;2022-08-20T11:47:49;95466.69;;;19.62;85.21
72409;BME280;60402;48.082;11.628;2022-08-20T11:50:17;95457.56;;;19.89;85.27
72409;BME280;60402;48.082;11.628;2022-08-20T11:52:43;95462.31;;;20.24;85.82
72409;BME280;60402;48.082;11.628;2022-08-20T11:55:11;95437.25;;;20.25;85.07
72409;BME280;60402;48.082;11.628;2022-08-20T11:57:40;95469.44;;;20.34;84.74
72409;BME280;60402;48.082;11.628;2022-08-20T12:00:10;95465.19;;;19.98;85.12
72409;BME280;60402;48.082;11.628;2022-08-20T12:02:37;95429.66;;;20.22;85.38
72409;BME280;60402;48.082;11.628;2022-08-20T12:05:06;95450.81;;;20.56;84.24
72409;BME280;60402;48.082;11.628;2022-08-20T12:07:32;95444.88;;;20.65;83.23
72409;BME280;60402;48.082;11.628;2022-08-20T12:09:57;95460.69;;;20.92;82.61
72409;BME280;60402;48.082;11.628;2022-08-20T12:12:35;95434.81;;;20.86;80.64
72409;BME280;60402;48.082;11.628;2022-08-20T12:15:02;95471.44;;;21.03;81.28
72409;BME280;60402;48.082;11.628;2022-08-20T12:17:31;95468.56;;;21.03;81.88
72409;BME280;60402;48.082;11.628;2022-08-20T12:19:59;95422.84;;;20.51;81.67
72409;BME280;60402;48.082;11.628;2022-08-20T12:22:28;95439.22;;;20.82;81.16
72409;BME280;60402;48.082;11.628;2022-08-20T12:25:11;95452.03;;;20.81;81.19
72409;BME280;60402;48.082;11.628;2022-08-20T12:27:38;95463.28;;;20.84;81.67
72409;BME280;60402;48.082;11.628;2022-08-20T12:30:10;95471.78;;;20.67;82.35
72409;BME280;60402;48.082;11.628;2022-08-20T12:32:39;95442.00;;;20.65;81.82
72409;BME280;60402;48.082;11.628;2022-08-20T12:35:09;95462.78;;;20.91;81.74
72409;BME280;60402;48.082;11.628;2022-08-20T12:37:34;95459.06;;;20.80;82.36
72409;BME280;60402;48.082;11.628;2022-08-20T12:40:07;95465.34;;;20.84;82.70
72409;BME280;60402;48.082;11.628;2022-08-20T12:42:33;95450.38;;;20.68;82.61
72409;BME280;60402;48.082;11.628;2022-08-20T12:44:59;95464.13;;;21.02;82.11
72409;BME280;60402;48.082;11.628;2022-08-20T12:47:32;95458.47;;;21.13;81.78
72409;BME280;60402;48.082;11.628;2022-08-20T12:50:11;95429.44;;;21.11;81.77
72409;BME280;60402;48.082;11.628;2022-08-20T12:52:37;95455.78;;;21.63;80.44
72409;BME280;60402;48.082;11.628;2022-08-20T12:55:04;95452.41;;;21.82;79.08
72409;BME280;60402;48.082;11.628;2022-08-20T12:57:36;95450.06;;;21.97;78.09
72409;BME280;60402;48.082;11.628;2022-08-20T13:00:16;95447.00;;;22.17;75.64
72409;BME280;60402;48.082;11.628;2022-08-20T13:02:44;95436.28;;;22.12;76.22